createdAt,value
2018-12-10T00:02:08.559Z,2.87
2018-12-10T00:04:38.505Z,2.27
2018-12-10T00:07:27.775Z,2.37
2018-12-10T00:10:03.119Z,4.12
2018-12-10T00:12:32.504Z,2.67
2018-12-10T00:15:02.876Z,1.52
2018-12-10T00:17:48.681Z,1.70
2018-12-10T00:20:23.844Z,2.23
2018-12-10T00:22:53.312Z,1.98
2018-12-10T00:25:33.106Z,3.53
2018-12-10T00:28:09.265Z,2.80
2018-12-10T00:30:39.808Z,2.53
2018-12-10T00:33:15.232Z,2.08
2018-12-10T00:35:44.704Z,2.20
2018-12-10T00:38:14.075Z,0.80
2018-12-10T00:43:41.238Z,1.30
2018-12-10T00:46:16.298Z,1.20
2018-12-10T00:48:45.650Z,1.02
2018-12-10T00:51:31.303Z,0.80
2018-12-10T00:54:00.624Z,0.75
2018-12-10T00:56:29.989Z,1.83
2018-12-10T01:02:05.355Z,0.80
2018-12-10T01:04:40.734Z,0.88
2018-12-10T01:07:10.110Z,1.00
2018-12-10T01:09:43.395Z,1.47
2018-12-10T01:12:12.783Z,1.62
2018-12-10T01:14:46.438Z,1.20
2018-12-10T01:17:32.704Z,2.23
2018-12-10T01:20:02.108Z,2.90
2018-12-10T01:22:37.735Z,1.87
2018-12-10T01:25:25.727Z,2.65
2018-12-10T01:27:59.083Z,2.20
2018-12-10T01:30:46.329Z,2.00
2018-12-10T01:33:24.548Z,1.77
2018-12-10T01:35:53.946Z,1.20
2018-12-10T01:38:23.269Z,2.67
2018-12-10T01:41:03.215Z,1.22
2018-12-10T01:43:32.691Z,2.75
2018-12-10T01:46:02.798Z,1.80
2018-12-10T01:48:32.379Z,1.75
2018-12-10T01:51:01.724Z,2.40
2018-12-10T01:53:37.355Z,2.25
2018-12-10T01:59:02.367Z,1.42
2018-12-10T02:01:35.049Z,2.03
2018-12-10T02:04:23.749Z,1.25
2018-12-10T02:07:05.221Z,2.20
2018-12-10T02:12:28.383Z,1.00
2018-12-10T02:14:58.474Z,1.35
2018-12-10T02:17:46.887Z,1.57
2018-12-10T02:20:19.315Z,2.42
2018-12-10T02:22:49.656Z,2.08
2018-12-10T02:25:25.015Z,2.22
2018-12-10T02:27:54.394Z,1.72
2018-12-10T02:30:30.063Z,1.37
2018-12-10T02:33:02.574Z,1.45
2018-12-10T02:38:35.534Z,2.27
2018-12-10T02:41:24.264Z,1.57
2018-12-10T02:44:19.552Z,2.10
2018-12-10T02:49:52.580Z,1.50
2018-12-10T02:55:20.447Z,1.95
2018-12-10T02:57:49.801Z,2.10
2018-12-10T03:00:31.580Z,1.33
2018-12-10T03:03:02.000Z,1.80
2018-12-10T03:05:31.311Z,0.93
2018-12-10T03:11:00.462Z,1.70
2018-12-10T03:16:28.943Z,1.77
2018-12-10T03:19:04.156Z,1.35
2018-12-10T03:21:40.411Z,1.13
2018-12-10T03:24:16.287Z,2.63
2018-12-10T03:26:49.718Z,2.27
2018-12-10T03:29:30.297Z,1.00
2018-12-10T03:32:08.730Z,1.93
2018-12-10T03:34:39.167Z,1.30
2018-12-10T03:37:13.212Z,1.20
2018-12-10T03:39:46.789Z,1.53
2018-12-10T03:42:16.119Z,2.57
2018-12-10T03:44:48.812Z,1.20
2018-12-10T03:47:20.122Z,1.17
2018-12-10T03:49:53.063Z,1.43
2018-12-10T03:52:22.431Z,0.93
2018-12-10T03:55:04.068Z,1.05
2018-12-10T03:57:35.174Z,1.17
2018-12-10T04:00:09.268Z,0.63
2018-12-10T04:02:51.059Z,2.95
2018-12-10T04:05:21.024Z,1.45
2018-12-10T04:07:50.388Z,0.77
2018-12-10T04:13:27.224Z,0.97
2018-12-10T04:15:56.618Z,1.17
2018-12-10T04:18:40.532Z,1.37
2018-12-10T04:21:09.830Z,1.03
2018-12-10T04:23:40.376Z,1.00
2018-12-10T04:26:16.095Z,1.50
2018-12-10T04:28:50.887Z,0.73
2018-12-10T04:31:29.959Z,1.50
2018-12-10T04:34:06.767Z,1.35
2018-12-10T04:36:36.123Z,0.60
2018-12-10T04:42:37.864Z,0.90
2018-12-10T04:45:15.520Z,0.62
2018-12-10T04:47:50.500Z,0.70
2018-12-10T04:53:25.240Z,0.60
2018-12-10T04:55:54.584Z,1.30
2018-12-10T04:58:35.939Z,1.53
2018-12-10T05:01:06.897Z,2.60
2018-12-10T05:03:42.288Z,3.77
2018-12-10T05:06:29.940Z,2.00
2018-12-10T05:08:59.355Z,3.20
2018-12-10T05:14:35.514Z,3.90
2018-12-10T05:20:17.974Z,2.63
2018-12-10T05:23:06.045Z,3.17
2018-12-10T05:25:45.396Z,2.17
2018-12-10T05:31:14.037Z,2.03
2018-12-10T05:33:44.015Z,1.25
2018-12-10T05:36:26.951Z,1.98
2018-12-10T05:39:09.098Z,1.33
2018-12-10T05:41:44.128Z,1.30
2018-12-10T05:44:31.753Z,2.80
2018-12-10T05:47:01.131Z,1.77
2018-12-10T05:52:39.917Z,1.52
2018-12-10T05:55:09.252Z,0.93
2018-12-10T05:57:45.324Z,1.75
2018-12-10T06:00:23.244Z,0.98
2018-12-10T06:02:55.831Z,1.17
2018-12-10T06:05:40.260Z,3.60
2018-12-10T06:08:14.377Z,0.98
2018-12-10T06:10:47.775Z,1.23
2018-12-10T06:13:28.884Z,1.57
2018-12-10T06:15:58.899Z,2.27
2018-12-10T06:18:32.097Z,2.00
2018-12-10T06:21:02.728Z,2.77
2018-12-10T06:23:32.120Z,1.67
2018-12-10T06:26:07.743Z,2.10
2018-12-10T06:28:53.782Z,3.07
2018-12-10T06:31:23.369Z,2.70
2018-12-10T06:33:59.085Z,2.33
2018-12-10T06:36:30.610Z,2.80
2018-12-10T06:39:07.015Z,2.47
2018-12-10T06:41:37.380Z,2.60
2018-12-10T06:44:23.295Z,1.90
2018-12-10T06:46:56.570Z,2.33
2018-12-10T06:49:44.945Z,2.75
2018-12-10T06:52:16.370Z,1.47
2018-12-10T06:58:01.319Z,2.85
2018-12-10T07:00:47.874Z,2.22
2018-12-10T07:03:17.421Z,2.57
2018-12-10T07:05:50.299Z,2.20
2018-12-10T07:08:38.750Z,2.60
2018-12-10T07:11:09.563Z,3.73
2018-12-10T07:14:07.966Z,3.83
2018-12-10T07:16:43.678Z,2.40
2018-12-10T07:22:10.071Z,1.87
2018-12-10T07:24:47.468Z,2.02
2018-12-10T07:27:24.465Z,3.73
2018-12-10T07:30:05.768Z,2.77
2018-12-10T07:32:53.702Z,1.80
2018-12-10T07:35:35.455Z,1.67
2018-12-10T07:38:27.516Z,2.63
2018-12-10T07:41:06.835Z,2.60
2018-12-10T07:43:36.691Z,3.05
2018-12-10T07:46:20.033Z,2.97
2018-12-10T07:48:59.760Z,1.53
2018-12-10T07:51:49.102Z,1.90
2018-12-10T07:54:25.138Z,2.45
2018-12-10T07:56:54.835Z,1.53
2018-12-10T07:59:44.777Z,1.47
2018-12-10T08:02:17.680Z,1.67
2018-12-10T08:04:49.041Z,2.00
2018-12-10T08:07:27.755Z,1.13
2018-12-10T08:10:05.234Z,1.67
2018-12-10T08:13:02.436Z,0.93
2018-12-10T08:15:31.894Z,1.63
2018-12-10T08:18:01.260Z,2.05
2018-12-10T08:20:52.927Z,1.27
2018-12-10T08:23:28.126Z,2.97
2018-12-10T08:25:57.826Z,2.15
2018-12-10T08:28:31.681Z,1.42
2018-12-10T08:31:30.123Z,1.93
2018-12-10T08:34:05.312Z,2.22
2018-12-10T08:36:36.484Z,1.02
2018-12-10T08:42:05.730Z,2.70
2018-12-10T08:44:38.879Z,2.27
2018-12-10T08:47:16.230Z,2.17
2018-12-10T08:49:45.558Z,2.47
2018-12-10T08:52:22.078Z,1.27
2018-12-10T08:54:57.941Z,2.45
2018-12-10T08:57:28.148Z,2.37
2018-12-10T09:00:04.758Z,3.87
2018-12-10T09:02:35.216Z,5.20
2018-12-10T09:05:05.427Z,5.00
2018-12-10T09:07:37.573Z,4.03
2018-12-10T09:10:19.158Z,3.67
2018-12-10T09:12:58.588Z,4.50
2018-12-10T09:15:40.635Z,4.80
2018-12-10T09:18:10.667Z,3.55
2018-12-10T09:20:45.513Z,4.03
2018-12-10T09:23:18.285Z,5.10
2018-12-10T09:25:53.931Z,2.77
2018-12-10T09:28:33.655Z,3.87
2018-12-10T09:31:23.005Z,1.87
2018-12-10T09:33:52.438Z,3.80
2018-12-10T09:36:21.819Z,3.30
2018-12-10T09:38:57.477Z,3.73
2018-12-10T09:41:27.048Z,3.97
2018-12-10T09:44:08.546Z,3.20
2018-12-10T09:47:08.040Z,4.00
2018-12-10T09:49:40.940Z,3.03
2018-12-10T09:52:10.335Z,3.23
2018-12-10T09:54:40.477Z,2.87
2018-12-10T09:57:09.873Z,1.50
2018-12-10T09:59:44.619Z,2.27
2018-12-10T10:02:17.033Z,3.47
2018-12-10T10:04:59.691Z,3.15
2018-12-10T10:07:29.047Z,2.37
2018-12-10T10:10:21.379Z,5.22
2018-12-10T10:12:50.695Z,2.98
2018-12-10T10:15:20.095Z,3.60
2018-12-10T10:17:54.487Z,4.12
2018-12-10T10:20:27.740Z,6.72
2018-12-10T10:22:57.139Z,2.43
2018-12-10T10:25:26.515Z,1.67
2018-12-10T10:27:56.955Z,4.78
2018-12-10T10:30:32.923Z,3.00
2018-12-10T10:33:02.332Z,3.03
2018-12-10T10:35:32.296Z,4.42
2018-12-10T10:38:08.139Z,3.57
2018-12-10T10:40:44.003Z,5.43
2018-12-10T10:43:13.418Z,2.60
2018-12-10T10:45:44.189Z,7.53
2018-12-10T10:48:14.664Z,1.85
2018-12-10T10:50:50.220Z,5.13
2018-12-10T10:53:50.528Z,7.27
2018-12-10T10:56:21.271Z,4.85
2018-12-10T11:02:05.001Z,7.37
2018-12-10T11:04:37.689Z,7.20
2018-12-10T11:07:11.702Z,3.77
2018-12-10T11:09:46.601Z,6.63
2018-12-10T11:12:21.727Z,4.50
2018-12-10T11:15:08.567Z,2.08
2018-12-10T11:17:45.182Z,4.35
2018-12-10T11:20:20.207Z,3.97
2018-12-10T11:22:55.488Z,3.30
2018-12-10T11:25:43.440Z,3.83
2018-12-10T11:28:22.869Z,3.83
2018-12-10T11:33:51.210Z,2.92
2018-12-10T11:39:27.968Z,4.67
2018-12-10T11:41:58.820Z,4.87
2018-12-10T11:44:40.860Z,4.77
2018-12-10T11:47:13.158Z,6.28
2018-12-10T11:49:48.956Z,3.92
2018-12-10T11:52:32.425Z,4.62
2018-12-10T11:55:07.896Z,9.15
2018-12-10T11:57:37.836Z,4.67
2018-12-10T12:00:31.089Z,3.65
2018-12-10T12:03:04.409Z,5.78
2018-12-10T12:05:34.348Z,4.70
2018-12-10T12:11:10.529Z,4.50
2018-12-10T12:13:52.176Z,1.83
2018-12-10T12:16:25.106Z,2.93
2018-12-10T12:18:58.067Z,3.33
2018-12-10T12:21:32.908Z,2.10
2018-12-10T12:24:06.089Z,2.70
2018-12-10T12:29:39.837Z,3.00
2018-12-10T12:32:12.546Z,2.43
2018-12-10T12:34:42.785Z,1.82
2018-12-10T12:37:19.158Z,4.10
2018-12-10T12:39:52.224Z,4.25
2018-12-10T12:42:21.982Z,6.85
2018-12-10T12:44:54.649Z,3.00
2018-12-10T12:47:28.636Z,7.83
2018-12-10T12:50:01.613Z,6.40
2018-12-10T12:52:38.045Z,5.50
2018-12-10T12:58:20.752Z,3.25
2018-12-10T13:00:59.697Z,3.17
2018-12-10T13:06:34.523Z,6.37
2018-12-10T13:09:23.207Z,5.22
2018-12-10T13:11:53.790Z,7.27
2018-12-10T13:14:23.159Z,3.90
2018-12-10T13:17:16.247Z,5.87
2018-12-10T13:19:54.192Z,4.37
2018-12-10T13:22:33.624Z,4.97
2018-12-10T13:25:19.295Z,4.90
2018-12-10T13:27:51.498Z,2.47
2018-12-10T13:30:24.185Z,4.37
2018-12-10T13:32:59.632Z,4.50
2018-12-10T13:35:28.984Z,3.13
2018-12-10T13:37:59.130Z,4.20
2018-12-10T13:40:56.718Z,3.87
2018-12-10T13:43:26.144Z,3.17
2018-12-10T13:45:55.541Z,3.23
2018-12-10T13:48:25.165Z,1.98
2018-12-10T13:51:00.791Z,2.40
2018-12-10T13:53:30.126Z,3.10
2018-12-10T13:55:59.535Z,2.57
2018-12-10T13:58:47.010Z,2.80
2018-12-10T14:01:21.844Z,6.17
2018-12-10T14:03:51.800Z,3.22
2018-12-10T14:06:29.102Z,6.42
2018-12-10T14:09:10.499Z,2.20
2018-12-10T14:11:40.587Z,1.90
2018-12-10T14:14:09.958Z,1.70
2018-12-10T14:16:39.339Z,3.00
2018-12-10T14:19:24.939Z,1.87
2018-12-10T14:22:04.271Z,6.30
2018-12-10T14:24:33.656Z,3.87
2018-12-10T14:27:06.273Z,2.83
2018-12-10T14:29:48.438Z,2.23
2018-12-10T14:32:17.943Z,4.00
2018-12-10T14:34:47.935Z,1.55
2018-12-10T14:40:30.445Z,1.90
2018-12-10T14:42:59.907Z,2.70
2018-12-10T14:45:42.706Z,1.40
2018-12-10T14:48:17.980Z,1.47
2018-12-10T14:50:53.190Z,1.17
2018-12-10T14:53:41.449Z,2.70
2018-12-10T14:56:11.005Z,1.90
2018-12-10T14:58:47.073Z,1.70
2018-12-10T15:01:17.043Z,1.57
2018-12-10T15:06:50.486Z,1.37
2018-12-10T15:09:26.499Z,2.72
2018-12-10T15:12:11.868Z,3.17
2018-12-10T15:14:46.290Z,4.65
2018-12-10T15:17:21.686Z,2.92
2018-12-10T15:22:44.891Z,1.27
2018-12-10T15:25:21.162Z,2.17
2018-12-10T15:28:03.258Z,2.15
2018-12-10T15:30:36.688Z,0.75
2018-12-10T15:33:06.123Z,1.05
2018-12-10T15:35:35.462Z,1.95
2018-12-10T15:38:23.698Z,2.67
2018-12-10T15:40:53.096Z,2.22
2018-12-10T15:43:32.958Z,2.43
2018-12-10T15:46:02.406Z,2.60
2018-12-10T15:48:32.056Z,1.20
2018-12-10T15:54:07.462Z,1.20
2018-12-10T15:59:39.664Z,2.58
2018-12-10T16:02:09.253Z,1.67
2018-12-10T16:04:38.719Z,5.28
2018-12-10T16:07:09.251Z,2.63
2018-12-10T16:09:44.836Z,2.13
2018-12-10T16:12:14.816Z,3.35
2018-12-10T16:14:44.185Z,1.20
2018-12-10T16:17:13.648Z,1.50
2018-12-10T16:19:59.492Z,2.45
2018-12-10T16:22:29.451Z,2.40
2018-12-10T16:24:59.332Z,3.10
2018-12-10T16:27:29.416Z,1.95
2018-12-10T16:30:17.712Z,1.30
2018-12-10T16:32:47.699Z,1.47
2018-12-10T16:35:23.127Z,1.60
2018-12-10T16:38:03.392Z,2.70
2018-12-10T16:40:37.527Z,1.50
2018-12-10T16:43:07.552Z,1.80
2018-12-10T16:45:40.048Z,1.27
2018-12-10T16:51:15.867Z,1.80
2018-12-10T16:53:45.256Z,1.37
2018-12-10T16:56:33.579Z,1.72
2018-12-10T16:59:06.279Z,2.72
2018-12-10T17:01:35.682Z,1.33
2018-12-10T17:04:05.057Z,1.97
2018-12-10T17:06:44.963Z,1.60
2018-12-10T17:09:20.995Z,1.50
2018-12-10T17:11:52.757Z,1.27
2018-12-10T17:17:22.512Z,1.73
2018-12-10T17:19:55.836Z,0.70
2018-12-10T17:25:14.745Z,1.23
2018-12-10T17:27:44.128Z,0.90
2018-12-10T17:30:14.099Z,1.15
2018-12-10T17:32:56.942Z,2.15
2018-12-10T17:35:28.070Z,1.07
2018-12-10T17:37:57.563Z,1.57
2018-12-10T17:40:58.303Z,1.10
2018-12-10T17:43:34.157Z,2.17
2018-12-10T17:46:10.252Z,3.60
2018-12-10T17:48:57.774Z,1.63
2018-12-10T17:51:40.627Z,2.72
2018-12-10T17:57:02.406Z,2.50
2018-12-10T17:59:36.018Z,2.55
2018-12-10T18:02:07.069Z,4.17
2018-12-10T18:04:56.859Z,4.25
2018-12-10T18:07:31.871Z,3.00
2018-12-10T18:13:12.745Z,31.48
2018-12-10T18:15:43.098Z,169.53
2018-12-10T18:18:30.502Z,1013.92
2018-12-10T18:21:11.755Z,950.17
2018-12-10T18:26:41.494Z,656.92
2018-12-10T18:29:17.786Z,362.30
2018-12-10T18:34:47.679Z,103.57
2018-12-10T18:37:22.051Z,89.28
2018-12-10T18:42:50.918Z,254.90
2018-12-10T18:45:27.039Z,320.57
2018-12-10T18:51:03.566Z,259.47
2018-12-10T18:53:40.570Z,263.75
2018-12-10T18:56:31.505Z,284.43
2018-12-10T18:59:01.519Z,257.10
2018-12-10T19:01:30.968Z,260.03
2018-12-10T19:04:10.904Z,241.57
2018-12-10T19:06:45.679Z,223.07
2018-12-10T19:09:15.639Z,206.05
2018-12-10T19:11:45.035Z,207.18
2018-12-10T19:14:14.906Z,176.50
2018-12-10T19:16:44.815Z,202.23
2018-12-10T19:19:30.868Z,154.20
2018-12-10T19:22:00.333Z,100.17
2018-12-10T19:24:30.105Z,128.57
2018-12-10T19:27:01.214Z,102.75
2018-12-10T19:29:36.423Z,111.35
2018-12-10T19:32:29.406Z,98.82
2018-12-10T19:34:58.900Z,126.72
2018-12-10T19:37:36.156Z,105.12
2018-12-10T19:40:17.614Z,88.30
2018-12-10T19:42:52.543Z,112.83
2018-12-10T19:45:23.325Z,103.53
2018-12-10T19:48:00.356Z,110.83
2018-12-10T19:53:36.991Z,76.37
2018-12-10T19:56:15.945Z,96.93
2018-12-10T19:59:23.968Z,92.82
2018-12-10T20:02:01.452Z,95.65
2018-12-10T20:04:48.687Z,106.17
2018-12-10T20:07:23.295Z,91.30
2018-12-10T20:09:53.369Z,91.87
2018-12-10T20:12:22.792Z,90.65
2018-12-10T20:17:59.752Z,77.17
2018-12-10T20:20:34.577Z,67.40
2018-12-10T20:23:06.129Z,67.27
2018-12-10T20:25:42.455Z,70.92
2018-12-10T20:28:34.439Z,64.25
2018-12-10T20:31:10.287Z,60.23
2018-12-10T20:33:46.121Z,63.98
2018-12-10T20:36:15.660Z,68.37
2018-12-10T20:38:45.431Z,54.60
2018-12-10T20:41:15.856Z,48.85
2018-12-10T20:43:45.395Z,47.77
2018-12-10T20:46:15.053Z,47.83
2018-12-10T20:48:44.447Z,54.67
2018-12-10T20:54:11.705Z,57.20
2018-12-10T20:56:51.581Z,51.73
2018-12-10T20:59:21.982Z,43.60
2018-12-10T21:01:51.911Z,47.67
2018-12-10T21:04:21.741Z,45.15
2018-12-10T21:07:01.361Z,48.92
2018-12-10T21:12:37.191Z,46.90
2018-12-10T21:15:08.014Z,46.08
2018-12-10T21:17:37.535Z,42.17
2018-12-10T21:20:13.792Z,41.92
2018-12-10T21:22:49.639Z,40.75
2018-12-10T21:25:31.551Z,39.13
2018-12-10T21:28:01.133Z,35.75
2018-12-10T21:33:48.525Z,32.25
2018-12-10T21:36:19.732Z,36.08
2018-12-10T21:38:53.069Z,45.20
2018-12-10T21:44:21.721Z,31.20
2018-12-10T21:46:58.852Z,34.90
2018-12-10T21:49:28.837Z,34.60
2018-12-10T21:52:04.190Z,36.08
2018-12-10T21:54:34.638Z,31.40
2018-12-10T21:57:08.035Z,35.95
2018-12-10T22:00:04.916Z,33.58
2018-12-10T22:02:35.393Z,28.07
2018-12-10T22:05:10.828Z,30.47
2018-12-10T22:07:51.152Z,28.57
2018-12-10T22:10:21.355Z,25.72
2018-12-10T22:12:52.606Z,32.00
2018-12-10T22:15:45.379Z,27.07
2018-12-10T22:18:14.855Z,20.75
2018-12-10T22:20:48.032Z,23.13
2018-12-10T22:23:36.102Z,23.57
2018-12-10T22:26:11.285Z,24.43
2018-12-10T22:28:40.722Z,24.45
2018-12-10T22:31:37.658Z,21.48
2018-12-10T22:34:13.604Z,23.45
2018-12-10T22:36:46.327Z,18.60
2018-12-10T22:39:17.150Z,17.73
2018-12-10T22:41:52.707Z,24.57
2018-12-10T22:44:22.939Z,27.32
2018-12-10T22:47:03.045Z,26.07
2018-12-10T22:49:50.121Z,29.10
2018-12-10T22:52:23.730Z,28.92
2018-12-10T22:54:53.138Z,29.67
2018-12-10T22:57:22.619Z,24.05
2018-12-10T22:59:55.647Z,26.60
2018-12-10T23:02:36.812Z,25.00
2018-12-10T23:05:06.839Z,24.83
2018-12-10T23:07:45.817Z,26.37
2018-12-10T23:13:09.852Z,23.83
2018-12-10T23:15:39.218Z,19.60
2018-12-10T23:18:08.624Z,16.15
2018-12-10T23:20:41.206Z,16.37
2018-12-10T23:23:11.214Z,13.25
2018-12-10T23:25:40.538Z,13.40
2018-12-10T23:28:09.909Z,14.73
2018-12-10T23:33:45.804Z,16.40
2018-12-10T23:36:15.186Z,12.17
2018-12-10T23:38:44.671Z,13.17
2018-12-10T23:41:31.714Z,14.47
2018-12-10T23:44:18.127Z,16.02
2018-12-10T23:46:55.790Z,11.77
2018-12-10T23:49:31.249Z,13.88
2018-12-10T23:52:00.720Z,21.50
2018-12-10T23:54:34.830Z,19.05
2018-12-10T23:57:18.650Z,14.40
2018-12-10T23:59:51.758Z,25.37
